Time;durP1;ratioP1;P1;durP2;ratioP2;P2;SDS_P1;SDS_P2;PMS_P1;PMS_P2;Temp;Humidity;BMP_temperature;BMP_pressure;BME280_temperature;BME280_humidity;BME280_pressure;Samples;Min_cycle;Max_cycle;Signal;HPM_P1;HPM_P2
2022/07/13 00:01:19;;;;;;;4.60;3.60;;;;;;;13.72;70.42;98112.59;104703;1287;22556;-89
2022/07/13 00:03:47;;;;;;;6.90;4.20;;;;;;;13.71;70.54;98114.39;104860;1287;22696;-88
2022/07/13 00:06:15;;;;;;;6.60;3.80;;;;;;;13.67;70.35;98110.80;104896;1287;22591;-88
2022/07/13 00:08:44;;;;;;;6.20;3.40;;;;;;;13.63;70.42;98111.98;104856;1287;22880;-87
2022/07/13 00:11:12;;;;;;;5.30;3.50;;;;;;;13.60;70.38;98109.70;104862;1287;25429;-88
2022/07/13 00:13:40;;;;;;;8.10;4.30;;;;;;;13.57;70.66;98110.58;104890;1287;22649;-89
2022/07/13 00:16:08;;;;;;;6.90;4.00;;;;;;;13.56;70.56;98109.98;104890;1287;22577;-89
2022/07/13 00:18:36;;;;;;;9.00;4.20;;;;;;;13.52;70.92;98109.41;104842;1287;25630;-88
2022/07/13 00:21:04;;;;;;;6.30;3.90;;;;;;;13.47;70.92;98105.92;104894;1287;22718;-87
2022/07/13 00:23:32;;;;;;;7.80;3.50;;;;;;;13.42;70.84;98111.85;104864;1287;23040;-88
2022/07/13 00:26:00;;;;;;;9.80;4.60;;;;;;;13.38;71.11;98113.81;104934;1287;22725;-87
2022/07/13 00:28:28;;;;;;;11.60;4.70;;;;;;;13.34;71.22;98112.77;104869;1287;22781;-89
2022/07/13 00:30:56;;;;;;;10.50;4.80;;;;;;;13.30;71.05;98112.75;104862;1287;23828;-89
2022/07/13 00:33:24;;;;;;;8.80;4.70;;;;;;;13.26;71.18;98112.88;104861;1287;23230;-87
2022/07/13 00:35:52;;;;;;;7.80;4.80;;;;;;;13.20;71.32;98110.30;104887;1287;25331;-90
2022/07/13 00:38:20;;;;;;;9.40;4.90;;;;;;;13.13;71.01;98109.80;104903;1287;22572;-89
2022/07/13 00:40:48;;;;;;;10.50;4.90;;;;;;;13.06;71.53;98107.28;104874;1287;24322;-89
2022/07/13 00:43:16;;;;;;;6.20;3.90;;;;;;;13.02;71.65;98108.06;104884;1287;25300;-90
2022/07/13 00:45:44;;;;;;;5.80;3.90;;;;;;;12.97;71.77;98107.36;104944;1289;24107;-88
2022/07/13 00:48:12;;;;;;;7.90;4.00;;;;;;;12.90;72.05;98103.48;105475;1287;22701;-87
2022/07/13 00:50:41;;;;;;;8.20;4.50;;;;;;;12.85;71.98;98107.89;104859;1287;25374;-88
2022/07/13 00:53:10;;;;;;;9.40;4.50;;;;;;;12.79;72.21;98110.04;105004;1287;26682;-88
2022/07/13 00:55:38;;;;;;;7.40;4.10;;;;;;;12.74;72.30;98107.88;105079;1287;24359;-86
2022/07/13 00:58:08;;;;;;;6.50;3.90;;;;;;;12.69;72.19;98106.95;104936;1287;25330;-87
2022/07/13 01:00:36;;;;;;;8.60;4.50;;;;;;;12.64;72.29;98108.21;104835;1290;22572;-85
2022/07/13 01:03:04;;;;;;;8.90;4.40;;;;;;;12.58;72.20;98111.39;105062;1287;23792;-88
2022/07/13 01:05:33;;;;;;;7.70;4.60;;;;;;;12.51;72.06;98109.98;104788;1288;22551;-90
2022/07/13 01:08:04;;;;;;;9.90;4.40;;;;;;;12.42;72.30;98103.34;104948;1288;25294;-91
2022/07/13 01:10:33;;;;;;;7.60;4.00;;;;;;;12.39;72.31;98100.26;105012;1287;24194;-92
2022/07/13 01:13:01;;;;;;;7.90;4.30;;;;;;;12.36;72.47;98099.69;105166;1287;23826;-92
2022/07/13 01:15:29;;;;;;;8.20;4.70;;;;;;;12.30;72.80;98104.04;105221;1287;22496;-92
2022/07/13 01:17:58;;;;;;;14.30;4.60;;;;;;;12.24;72.99;98102.92;105082;1287;25406;-88
2022/07/13 01:20:26;;;;;;;8.20;4.30;;;;;;;12.15;72.51;98101.98;104935;1287;24418;-91
2022/07/13 01:22:55;;;;;;;9.30;4.20;;;;;;;11.98;72.81;98105.86;104823;1290;24305;-90
2022/07/13 01:25:24;;;;;;;13.10;4.50;;;;;;;11.87;72.93;98106.15;105152;1287;23084;-90
2022/07/13 01:27:52;;;;;;;9.70;4.00;;;;;;;11.75;73.57;98102.35;104930;1287;22676;-90
2022/07/13 01:30:21;;;;;;;7.70;3.90;;;;;;;11.65;73.59;98099.44;104829;1287;22707;-87
2022/07/13 01:32:50;;;;;;;10.20;5.10;;;;;;;11.53;73.86;98099.61;104847;1287;22811;-87
2022/07/13 01:35:22;;;;;;;7.10;4.50;;;;;;;11.38;74.56;98101.73;104888;1287;24314;-89
2022/07/13 01:37:53;;;;;;;7.90;4.20;;;;;;;11.36;75.41;98103.27;104900;1287;25376;-90
2022/07/13 01:40:22;;;;;;;11.60;4.10;;;;;;;11.38;75.12;98099.85;104909;1287;22582;-89
2022/07/13 01:42:52;;;;;;;10.10;4.60;;;;;;;11.38;75.94;98101.02;104951;1287;23222;-89
2022/07/13 01:45:23;;;;;;;9.10;4.40;;;;;;;11.36;75.60;98101.06;105090;1287;22587;-89
2022/07/13 01:47:54;;;;;;;8.40;4.20;;;;;;;11.29;75.46;98098.44;104921;1287;22661;-89
2022/07/13 01:50:27;;;;;;;6.90;4.20;;;;;;;11.23;75.37;98092.30;105018;1287;25363;-90
2022/07/13 01:52:56;;;;;;;16.40;5.00;;;;;;;11.21;75.37;98090.83;104899;1288;22569;-89
2022/07/13 01:55:24;;;;;;;8.30;4.50;;;;;;;11.21;74.91;98091.58;104382;1290;572669;-87
2022/07/13 01:58:00;;;;;;;9.10;4.50;;;;;;;11.16;75.41;98093.77;104963;1287;22568;-88
2022/07/13 02:00:29;;;;;;;8.60;4.60;;;;;;;11.02;75.73;98093.27;105684;1286;22556;-86
2022/07/13 02:02:57;;;;;;;7.90;4.70;;;;;;;10.97;76.35;98091.58;105001;1287;22877;-88
2022/07/13 02:05:27;;;;;;;9.20;4.80;;;;;;;10.94;76.76;98087.47;105150;1287;22718;-86
2022/07/13 02:07:55;;;;;;;7.80;4.10;;;;;;;10.94;76.86;98085.16;105054;1287;24295;-89
2022/07/13 02:10:37;;;;;;;11.90;4.90;;;;;;;10.97;76.17;98084.84;105042;1287;24304;-87
2022/07/13 02:13:08;;;;;;;11.50;4.70;;;;;;;10.94;76.03;98087.64;105062;1287;25373;-86
2022/07/13 02:15:36;;;;;;;10.40;4.70;;;;;;;10.87;76.81;98090.67;104714;1289;22718;-86
2022/07/13 02:18:06;;;;;;;12.70;5.20;;;;;;;10.80;76.92;98091.91;105053;1287;22569;-88
2022/07/13 02:20:35;;;;;;;8.40;4.50;;;;;;;10.76;77.55;98087.52;105053;1287;25265;-87
2022/07/13 02:23:05;;;;;;;11.80;4.00;;;;;;;10.80;77.55;98085.50;104988;1287;25789;-87
2022/07/13 02:25:34;;;;;;;8.80;4.70;;;;;;;10.86;78.12;98084.86;104850;1287;22714;-88
2022/07/13 02:28:02;;;;;;;9.30;4.90;;;;;;;10.91;78.37;98083.48;104915;1287;22559;-89
2022/07/13 02:30:30;;;;;;;10.20;4.80;;;;;;;10.95;78.51;98080.35;104912;1288;22756;-89
2022/07/13 02:32:58;;;;;;;9.10;5.00;;;;;;;10.94;78.53;98078.68;104880;1287;22742;-89
2022/07/13 02:35:26;;;;;;;8.60;5.00;;;;;;;10.98;78.72;98079.38;104825;1288;24411;-88
2022/07/13 02:37:54;;;;;;;8.00;4.70;;;;;;;11.04;78.71;98078.13;104830;1288;22585;-89
2022/07/13 02:40:23;;;;;;;9.00;4.50;;;;;;;11.10;78.87;98080.88;104861;1287;24534;-89
2022/07/13 02:42:51;;;;;;;10.50;4.80;;;;;;;11.13;78.88;98081.13;104909;1287;23994;-90
2022/07/13 02:45:19;;;;;;;10.40;5.00;;;;;;;11.17;78.77;98079.95;104769;1287;25380;-88
2022/07/13 02:47:48;;;;;;;9.50;4.80;;;;;;;11.24;79.47;98078.80;104900;1287;22599;-89
2022/07/13 02:50:16;;;;;;;7.10;4.20;;;;;;;11.30;79.24;98079.64;104958;1287;22632;-88
2022/07/13 02:52:45;;;;;;;13.10;4.90;;;;;;;11.37;79.63;98082.23;104875;1287;22688;-88
2022/07/13 02:55:13;;;;;;;10.40;5.10;;;;;;;11.42;79.83;98084.19;105058;1287;23988;-88
2022/07/13 02:57:41;;;;;;;8.30;4.50;;;;;;;11.47;79.43;98082.80;104801;1288;23656;-88
2022/07/13 03:00:10;;;;;;;11.70;4.80;;;;;;;11.53;79.76;98075.42;105100;1287;23659;-88
2022/07/13 03:02:38;;;;;;;6.90;4.20;;;;;;;11.56;79.72;98080.55;104896;1289;26638;-89
2022/07/13 03:05:08;;;;;;;9.60;4.80;;;;;;;11.57;79.50;98077.98;104913;1288;24263;-90
2022/07/13 03:07:36;;;;;;;8.50;4.30;;;;;;;11.61;79.66;98080.41;104968;1287;25407;-91
2022/07/13 03:10:05;;;;;;;6.40;4.00;;;;;;;11.63;79.40;98082.79;104986;1287;22566;-87
2022/07/13 03:12:33;;;;;;;8.00;4.00;;;;;;;11.64;79.63;98080.45;105350;1287;22572;-89
2022/07/13 03:15:02;;;;;;;6.90;3.90;;;;;;;11.65;79.55;98079.84;105289;1287;22686;-90
2022/07/13 03:17:30;;;;;;;12.00;4.10;;;;;;;11.65;79.54;98078.69;104810;1289;22570;-85
2022/07/13 03:19:58;;;;;;;6.60;3.90;;;;;;;11.66;79.67;98078.15;104910;1288;26143;-90
2022/07/13 03:22:26;;;;;;;6.40;4.20;;;;;;;11.68;79.70;98078.34;104904;1287;22884;-87
2022/07/13 03:24:54;;;;;;;6.90;4.20;;;;;;;11.71;79.77;98081.17;105098;1287;22577;-87
2022/07/13 03:27:22;;;;;;;7.20;4.40;;;;;;;11.70;79.46;98083.36;105022;1287;22589;-87
2022/07/13 03:29:50;;;;;;;7.70;4.50;;;;;;;11.69;79.45;98082.65;104829;1287;22727;-89
2022/07/13 03:32:18;;;;;;;7.50;4.00;;;;;;;11.71;79.44;98082.05;105087;1287;23439;-88
2022/07/13 03:34:47;;;;;;;9.00;4.40;;;;;;;11.74;79.62;98084.45;105064;1287;22570;-91
2022/07/13 03:37:17;;;;;;;7.90;4.80;;;;;;;11.76;79.58;98085.64;105094;1287;25384;-88
2022/07/13 03:39:45;;;;;;;9.10;4.70;;;;;;;11.79;79.63;98086.41;104844;1287;23240;-88
2022/07/13 03:42:13;;;;;;;8.80;4.80;;;;;;;11.79;79.71;98082.73;104922;1287;25365;-89
2022/07/13 03:44:41;;;;;;;9.80;5.80;;;;;;;11.79;79.63;98082.45;105085;1287;22662;-89
2022/07/13 03:47:09;;;;;;;13.30;6.30;;;;;;;11.81;79.61;98084.09;105084;1287;25378;-88
2022/07/13 03:49:37;;;;;;;9.80;5.80;;;;;;;11.85;80.14;98083.23;104954;1287;25256;-89
2022/07/13 03:52:05;;;;;;;10.50;6.50;;;;;;;11.88;79.70;98083.34;104794;1287;22544;-89
2022/07/13 03:54:33;;;;;;;11.00;6.60;;;;;;;11.90;79.36;98087.82;105048;1287;24114;-89
2022/07/13 03:57:01;;;;;;;9.30;6.00;;;;;;;11.92;79.45;98085.63;104881;1287;24435;-91
2022/07/13 03:59:30;;;;;;;9.40;6.00;;;;;;;11.96;79.48;98090.36;104867;1287;22597;-90
2022/07/13 04:01:58;;;;;;;15.50;7.20;;;;;;;12.00;79.55;98091.19;104854;1287;22729;-88
2022/07/13 04:04:27;;;;;;;11.50;7.00;;;;;;;12.04;79.81;98088.13;104967;1289;22741;-91
2022/07/13 04:06:57;;;;;;;9.40;6.90;;;;;;;12.07;79.57;98086.79;104992;1287;25363;-90
2022/07/13 04:09:25;;;;;;;10.80;6.50;;;;;;;12.10;79.52;98088.52;104991;1287;22743;-91
2022/07/13 04:11:53;;;;;;;10.70;6.00;;;;;;;12.15;79.86;98084.00;104986;1287;24958;-92
2022/07/13 04:14:22;;;;;;;9.60;6.00;;;;;;;12.21;79.93;98088.73;105057;1287;22695;-90
2022/07/13 04:16:50;;;;;;;10.60;6.80;;;;;;;12.27;79.97;98086.86;105010;1287;24327;-92
2022/07/13 04:19:18;;;;;;;10.70;6.40;;;;;;;12.32;79.65;98087.83;105351;1287;22660;-90
2022/07/13 04:21:46;;;;;;;12.80;6.50;;;;;;;12.37;79.87;98091.73;105491;1287;22610;-88
2022/07/13 04:24:22;;;;;;;10.70;6.40;;;;;;;12.45;80.14;98096.55;105849;1287;24095;-89
2022/07/13 04:26:51;;;;;;;9.00;5.30;;;;;;;12.54;79.95;98099.20;105812;1287;25356;-90
2022/07/13 04:29:19;;;;;;;10.80;6.20;;;;;;;12.65;79.82;98101.23;105027;1287;22721;-90
2022/07/13 04:31:47;;;;;;;9.30;5.90;;;;;;;12.77;79.81;98102.29;104864;1287;22581;-91
2022/07/13 04:34:16;;;;;;;12.10;5.80;;;;;;;12.86;79.95;98100.54;104834;1288;25728;-88
2022/07/13 04:36:45;;;;;;;14.00;5.60;;;;;;;12.96;80.00;98108.58;104981;1287;22581;-88
2022/07/13 04:39:13;;;;;;;11.30;5.80;;;;;;;13.05;80.26;98107.05;104879;1287;25325;-89
2022/07/13 04:41:41;;;;;;;7.80;4.60;;;;;;;13.15;80.10;98107.93;104857;1287;22556;-90
2022/07/13 04:44:09;;;;;;;9.50;5.10;;;;;;;13.24;80.02;98110.58;104789;1289;22713;-87
2022/07/13 04:46:38;;;;;;;9.90;5.60;;;;;;;13.32;79.81;98111.42;104962;1287;22557;-89
2022/07/13 04:49:06;;;;;;;10.60;5.90;;;;;;;13.40;79.73;98109.86;105050;1287;25656;-90
2022/07/13 04:51:35;;;;;;;7.70;4.60;;;;;;;13.51;79.90;98110.20;104919;1288;22563;-90
2022/07/13 04:54:04;;;;;;;10.60;5.20;;;;;;;13.64;79.72;98112.67;105353;1287;24105;-90
2022/07/13 04:56:33;;;;;;;7.30;5.10;;;;;;;13.74;79.85;98114.66;105028;1287;22833;-90
2022/07/13 04:59:00;;;;;;;9.80;5.50;;;;;;;13.82;79.60;98115.15;104960;1287;25513;-91
2022/07/13 05:01:28;;;;;;;7.50;5.20;;;;;;;13.87;79.43;98117.02;104818;1287;22634;-90
2022/07/13 05:04:03;;;;;;;6.60;4.40;;;;;;;13.92;79.22;98112.64;104956;1287;23982;-89
2022/07/13 05:06:31;;;;;;;7.90;4.60;;;;;;;14.01;78.98;98108.38;105158;1287;24268;-90
2022/07/13 05:09:00;;;;;;;12.30;5.20;;;;;;;14.10;79.13;98109.35;105139;1287;22575;-92
2022/07/13 05:11:31;;;;;;;9.00;5.20;;;;;;;14.18;79.01;98110.41;105467;1287;25567;-91
2022/07/13 05:13:59;;;;;;;7.20;4.90;;;;;;;14.25;78.56;98112.82;104882;1287;22790;-89
2022/07/13 05:16:27;;;;;;;8.80;5.10;;;;;;;14.31;78.25;98106.30;104833;1289;25543;-88
2022/07/13 05:18:57;;;;;;;8.60;4.40;;;;;;;14.42;78.26;98109.10;105125;1287;25510;-88
2022/07/13 05:21:29;;;;;;;8.70;4.90;;;;;;;14.51;78.07;98106.38;105030;1287;23521;-88
2022/07/13 05:23:57;;;;;;;12.00;5.40;;;;;;;14.59;77.89;98106.26;105018;1287;25584;-89
2022/07/13 05:26:25;;;;;;;8.80;4.70;;;;;;;14.66;77.52;98102.58;105059;1287;22749;-92
2022/07/13 05:28:53;;;;;;;8.10;4.80;;;;;;;14.74;77.77;98102.73;104886;1287;24001;-90
2022/07/13 05:31:21;;;;;;;10.20;5.00;;;;;;;14.87;77.88;98099.36;104802;1288;22545;-89
2022/07/13 05:33:49;;;;;;;9.00;4.90;;;;;;;15.00;77.82;98094.72;104883;1288;22571;-89
2022/07/13 05:36:22;;;;;;;7.80;4.70;;;;;;;15.14;77.38;98096.70;104949;1287;24327;-90
2022/07/13 05:38:50;;;;;;;10.70;5.20;;;;;;;15.27;77.22;98097.68;105336;1287;25371;-90
2022/07/13 05:41:18;;;;;;;10.20;4.40;;;;;;;15.42;77.25;98104.05;105782;1287;22852;-90
2022/07/13 05:43:47;;;;;;;8.40;4.70;;;;;;;15.57;76.93;98099.71;105057;1288;22715;-88
2022/07/13 05:46:16;;;;;;;7.40;4.40;;;;;;;15.71;76.27;98099.83;105143;1287;22490;-89
2022/07/13 05:48:44;;;;;;;8.60;4.90;;;;;;;15.81;75.92;98104.86;105116;1289;24109;-87
2022/07/13 05:51:12;;;;;;;11.60;5.70;;;;;;;15.91;75.81;98106.75;105100;1287;25519;-90
2022/07/13 05:54:00;;;;;;;6.40;4.00;;;;;;;16.04;75.30;98100.02;104917;1287;22726;-90
2022/07/13 05:56:49;;;;;;;7.30;4.80;;;;;;;16.13;74.92;98101.98;104987;1287;23178;-89
2022/07/13 05:59:17;;;;;;;7.80;4.50;;;;;;;16.21;74.88;98106.58;105104;1287;22715;-90
2022/07/13 06:01:45;;;;;;;6.20;4.20;;;;;;;16.29;74.66;98108.38;105130;1287;23989;-90
2022/07/13 06:04:13;;;;;;;7.90;4.00;;;;;;;16.38;74.34;98108.95;105112;1287;22567;-90
2022/07/13 06:06:41;;;;;;;7.50;4.10;;;;;;;16.48;74.12;98103.63;105068;1287;22566;-89
2022/07/13 06:09:09;;;;;;;6.10;4.00;;;;;;;16.58;73.55;98110.67;105066;1287;22649;-90
2022/07/13 06:11:39;;;;;;;9.00;4.40;;;;;;;16.66;73.39;98106.93;105254;1287;22718;-89
2022/07/13 06:14:07;;;;;;;10.20;4.30;;;;;;;16.77;72.61;98111.17;105110;1287;24779;-89
2022/07/13 06:16:35;;;;;;;8.70;4.10;;;;;;;16.82;71.91;98107.05;105147;1287;26646;-88
2022/07/13 06:19:03;;;;;;;7.10;4.90;;;;;;;16.90;72.02;98103.84;105152;1287;22563;-88
2022/07/13 06:21:31;;;;;;;8.90;4.50;;;;;;;16.98;71.71;98101.34;105160;1287;25423;-88
2022/07/13 06:23:59;;;;;;;7.60;4.70;;;;;;;17.06;71.37;98105.11;104799;1287;23146;-89
2022/07/13 06:26:27;;;;;;;9.30;4.90;;;;;;;17.11;70.54;98107.67;105135;1287;22775;-88
2022/07/13 06:28:55;;;;;;;7.60;5.10;;;;;;;17.12;70.43;98107.39;105085;1287;22572;-88
2022/07/13 06:31:23;;;;;;;10.60;5.30;;;;;;;17.14;70.27;98116.27;104957;1287;25501;-89
2022/07/13 06:33:52;;;;;;;8.90;4.60;;;;;;;17.21;70.12;98111.52;104815;1288;22694;-88
2022/07/13 06:36:20;;;;;;;10.20;4.50;;;;;;;17.28;69.87;98110.68;104976;1287;22572;-89
2022/07/13 06:38:49;;;;;;;7.50;4.60;;;;;;;17.35;70.10;98108.80;104968;1287;23979;-87
2022/07/13 06:41:17;;;;;;;8.60;5.10;;;;;;;17.41;69.48;98110.56;104980;1287;23450;-89
2022/07/13 06:43:46;;;;;;;8.80;4.60;;;;;;;17.45;69.26;98109.74;104827;1290;23306;-86
2022/07/13 06:46:14;;;;;;;9.50;5.20;;;;;;;17.51;69.60;98107.94;105123;1287;22675;-86
2022/07/13 06:48:42;;;;;;;11.70;4.70;;;;;;;17.62;69.77;98108.33;105015;1287;22676;-89
2022/07/13 06:51:11;;;;;;;9.50;5.30;;;;;;;17.79;70.06;98108.45;105396;1287;22566;-90
2022/07/13 06:53:39;;;;;;;10.50;4.20;;;;;;;17.94;68.89;98113.22;104965;1287;22704;-88
2022/07/13 06:56:07;;;;;;;12.00;4.90;;;;;;;17.98;68.08;98106.05;105142;1287;22744;-87
2022/07/13 06:58:35;;;;;;;5.70;3.70;;;;;;;18.06;68.19;98104.11;105073;1287;22586;-89
2022/07/13 07:01:04;;;;;;;8.20;4.10;;;;;;;18.14;67.70;98104.34;105134;1287;22573;-88
2022/07/13 07:03:32;;;;;;;7.60;3.90;;;;;;;18.21;67.71;98100.98;105129;1287;25481;-84
2022/07/13 07:06:00;;;;;;;7.00;4.10;;;;;;;18.30;67.67;98102.95;104839;1287;23944;-84
2022/07/13 07:08:28;;;;;;;7.00;4.20;;;;;;;18.43;67.25;98105.73;104943;1287;25384;-87
2022/07/13 07:10:56;;;;;;;7.60;4.50;;;;;;;18.50;66.76;98109.32;104921;1287;25320;-86
2022/07/13 07:13:24;;;;;;;14.90;6.70;;;;;;;18.59;67.03;98103.71;105568;1287;23319;-85
2022/07/13 07:15:52;;;;;;;8.70;3.80;;;;;;;18.71;66.33;98110.21;105083;1287;22737;-86
2022/07/13 07:18:21;;;;;;;7.60;3.80;;;;;;;18.76;65.84;98107.19;105135;1287;24438;-86
2022/07/13 07:20:49;;;;;;;9.90;3.20;;;;;;;18.80;65.79;98101.93;105122;1287;24765;-87
2022/07/13 07:23:17;;;;;;;5.20;3.60;;;;;;;18.89;65.59;98110.73;105086;1287;22865;-86
2022/07/13 07:25:45;;;;;;;5.40;2.70;;;;;;;18.94;64.92;98112.38;105153;1287;22707;-84
2022/07/13 07:28:13;;;;;;;7.20;3.50;;;;;;;19.01;65.26;98113.10;105069;1287;25334;-86
2022/07/13 07:30:41;;;;;;;5.10;2.90;;;;;;;19.13;64.82;98121.67;105158;1287;24425;-86
2022/07/13 07:33:09;;;;;;;5.10;3.20;;;;;;;19.22;64.20;98105.38;105120;1287;25410;-86
2022/07/13 07:35:37;;;;;;;7.90;3.20;;;;;;;19.34;64.50;98109.89;105142;1287;25377;-85
2022/07/13 07:38:05;;;;;;;4.60;3.00;;;;;;;19.47;64.71;98112.27;105115;1287;24257;-87
2022/07/13 07:40:33;;;;;;;6.30;3.30;;;;;;;19.63;63.84;98112.90;105132;1287;22582;-87
2022/07/13 07:43:01;;;;;;;3.90;2.80;;;;;;;19.68;63.30;98105.17;105108;1287;23544;-88
2022/07/13 07:45:29;;;;;;;4.00;2.90;;;;;;;19.71;63.14;98113.45;105186;1287;24354;-84
2022/07/13 07:47:57;;;;;;;7.70;3.50;;;;;;;19.75;62.87;98111.80;105362;1288;25485;-84
2022/07/13 07:50:25;;;;;;;5.90;3.20;;;;;;;19.84;62.71;98104.69;105091;1287;22591;-84
2022/07/13 07:52:53;;;;;;;4.30;3.00;;;;;;;19.93;61.98;98105.73;105194;1287;22590;-84
2022/07/13 07:55:31;;;;;;;5.20;2.70;;;;;;;19.92;61.81;98104.56;105369;1287;26556;-86
2022/07/13 07:57:59;;;;;;;4.40;2.50;;;;;;;20.01;62.15;98108.35;105678;1287;22721;-84
2022/07/13 08:00:27;;;;;;;7.60;3.50;;;;;;;20.14;61.67;98104.60;105751;1287;25434;-85
2022/07/13 08:02:57;;;;;;;5.70;3.00;;;;;;;20.26;60.98;98102.52;105144;1287;25483;-86
2022/07/13 08:05:26;;;;;;;6.00;2.80;;;;;;;20.29;60.43;98109.29;105305;1287;26652;-84
2022/07/13 08:07:54;;;;;;;4.90;3.10;;;;;;;20.37;61.00;98107.52;105025;1290;22766;-85
2022/07/13 08:10:22;;;;;;;3.80;2.40;;;;;;;20.55;61.21;98100.10;105314;1287;22668;-84
2022/07/13 08:12:56;;;;;;;2.90;2.20;;;;;;;20.71;59.94;98104.65;105108;1287;22707;-85
2022/07/13 08:15:26;;;;;;;3.70;2.50;;;;;;;20.75;60.13;98103.46;105071;1287;25431;-86
2022/07/13 08:17:54;;;;;;;3.30;2.20;;;;;;;20.79;58.83;98105.61;105152;1287;24354;-86
2022/07/13 08:20:23;;;;;;;4.80;2.40;;;;;;;20.81;59.07;98103.53;105145;1287;23952;-84
2022/07/13 08:22:52;;;;;;;3.60;2.10;;;;;;;20.95;59.18;98101.59;105184;1287;26594;-85
2022/07/13 08:25:21;;;;;;;4.10;2.10;;;;;;;21.05;58.59;98104.77;105088;1288;22823;-85
2022/07/13 08:27:49;;;;;;;5.90;1.90;;;;;;;21.13;57.33;98105.29;105122;1288;25268;-86
2022/07/13 08:30:18;;;;;;;3.30;2.10;;;;;;;21.11;57.29;98096.27;105222;1287;25377;-85
2022/07/13 08:32:46;;;;;;;6.40;1.80;;;;;;;21.19;56.16;98102.98;105287;1287;22599;-85
2022/07/13 08:40:47;;;;;;;3.90;2.00;;;;;;;21.42;55.38;98097.38;105239;1287;22562;-87
2022/07/13 08:43:15;;;;;;;7.40;2.20;;;;;;;21.49;55.41;98101.58;105234;1287;24277;-84
2022/07/13 08:45:43;;;;;;;7.40;1.90;;;;;;;21.56;54.70;98115.41;104958;1290;24455;-85
2022/07/13 08:48:17;;;;;;;1.80;1.70;;;;;;;21.56;54.30;98110.46;105008;1289;22748;-86
2022/07/13 08:50:45;;;;;;;8.70;2.10;;;;;;;21.60;53.94;98114.13;105389;1287;22764;-85
2022/07/13 08:53:14;;;;;;;6.40;2.00;;;;;;;21.65;53.61;98113.13;105170;1287;25253;-87
2022/07/13 08:55:43;;;;;;;3.40;1.90;;;;;;;21.74;53.18;98110.05;105059;1287;25372;-85
2022/07/13 08:58:17;;;;;;;3.50;2.10;;;;;;;21.81;53.46;98120.91;105007;1287;22549;-84
2022/07/13 09:00:45;;;;;;;5.40;2.40;;;;;;;21.86;53.39;98111.20;105231;1287;22815;-84
2022/07/13 09:03:13;;;;;;;5.10;2.30;;;;;;;21.89;53.32;98115.55;105225;1287;22567;-86
2022/07/13 09:05:42;;;;;;;5.00;2.20;;;;;;;21.96;52.97;98119.73;105097;1287;24296;-87
2022/07/13 09:08:12;;;;;;;7.20;2.50;;;;;;;21.97;53.18;98112.61;105353;1287;24419;-87
2022/07/13 09:10:54;;;;;;;3.20;1.90;;;;;;;22.02;52.15;98109.33;105921;1287;25405;-87
2022/07/13 09:13:42;;;;;;;2.90;1.80;;;;;;;22.09;51.66;98109.65;105146;1287;22730;-87
2022/07/13 09:16:25;;;;;;;4.30;2.20;;;;;;;22.06;52.12;98109.77;105325;1287;22704;-86
2022/07/13 09:19:00;;;;;;;2.20;1.70;;;;;;;21.95;51.49;98107.34;105226;1287;25369;-86
2022/07/13 09:21:30;;;;;;;2.30;1.80;;;;;;;22.05;51.31;98111.16;105250;1287;23946;-85
2022/07/13 09:24:04;;;;;;;6.40;2.00;;;;;;;22.15;50.75;98104.50;105164;1287;22575;-87
2022/07/13 09:26:45;;;;;;;1.80;1.70;;;;;;;22.24;51.10;98102.21;105200;1287;24480;-88
2022/07/13 09:29:14;;;;;;;4.60;2.00;;;;;;;22.42;51.48;98100.27;105083;1287;25339;-86
2022/07/13 09:31:52;;;;;;;3.40;2.10;;;;;;;22.52;49.87;98121.89;105086;1287;25390;-85
2022/07/13 09:34:41;;;;;;;4.80;2.10;;;;;;;22.56;49.15;98113.62;105017;1288;23568;-83
2022/07/13 09:37:18;;;;;;;5.60;1.50;;;;;;;22.62;49.33;98116.14;105003;1287;24376;-83
2022/07/13 09:39:55;;;;;;;4.40;1.80;;;;;;;22.64;49.00;98112.31;105134;1287;23432;-84
2022/07/13 09:42:28;;;;;;;1.80;1.60;;;;;;;22.76;48.65;98109.63;105208;1288;22904;-85
2022/07/13 09:48:13;;;;;;;2.50;1.60;;;;;;;22.89;47.83;98115.11;105258;1287;22722;-84
2022/07/13 09:50:41;;;;;;;3.30;1.80;;;;;;;22.99;47.75;98100.59;105186;1287;24436;-84
2022/07/13 09:53:45;;;;;;;3.40;2.00;;;;;;;23.10;47.90;98100.31;105239;1287;24272;-85
2022/07/13 09:56:14;;;;;;;3.10;1.90;;;;;;;23.18;46.90;98105.52;104661;1297;22732;-83
2022/07/13 09:58:42;;;;;;;2.70;1.40;;;;;;;23.21;47.18;98101.43;104293;1298;22677;-83
2022/07/13 10:01:11;;;;;;;3.10;1.70;;;;;;;23.32;46.56;98104.30;104507;1297;24240;-83
2022/07/13 10:03:40;;;;;;;3.60;1.60;;;;;;;23.36;45.73;98100.71;104346;1297;22560;-83
2022/07/13 10:06:20;;;;;;;2.40;1.80;;;;;;;23.46;46.59;98100.02;104250;1297;22563;-83
2022/07/13 10:08:49;;;;;;;3.60;1.50;;;;;;;23.63;46.36;98097.81;104356;1297;24280;-84
2022/07/13 10:11:21;;;;;;;3.20;1.50;;;;;;;23.82;46.01;98098.55;104392;1297;28221;-83
2022/07/13 10:13:50;;;;;;;6.80;1.60;;;;;;;23.73;45.56;98100.66;104573;1297;22757;-83
2022/07/13 10:16:18;;;;;;;5.00;2.00;;;;;;;23.68;45.06;98101.80;104622;1297;22911;-84
2022/07/13 10:18:47;;;;;;;3.60;2.20;;;;;;;23.72;45.42;98104.98;104425;1297;22766;-83
2022/07/13 10:21:50;;;;;;;2.50;1.60;;;;;;;23.73;45.65;98099.98;104655;1296;22588;-84
2022/07/13 10:24:21;;;;;;;5.90;2.10;;;;;;;23.81;45.70;98096.81;104423;1297;22573;-84
2022/07/13 10:26:49;;;;;;;4.20;1.90;;;;;;;23.91;45.62;98097.19;104594;1297;22844;-83
2022/07/13 10:29:17;;;;;;;4.20;1.90;;;;;;;24.07;45.01;98097.06;104513;1297;22797;-83
2022/07/13 10:31:59;;;;;;;2.10;1.40;;;;;;;24.18;44.88;98105.16;105196;1288;22656;-84
2022/07/13 10:34:57;;;;;;;2.00;1.50;;;;;;;24.16;42.88;98108.45;105457;1287;22552;-83
2022/07/13 10:37:27;;;;;;;2.20;1.40;;;;;;;24.10;42.94;98108.10;105261;1287;22725;-82
2022/07/13 10:40:15;;;;;;;5.40;1.70;;;;;;;24.02;42.67;98106.55;105255;1287;22837;-83
2022/07/13 10:43:11;;;;;;;6.10;1.80;;;;;;;24.09;43.76;98103.29;105213;1287;25492;-83
2022/07/13 10:45:44;;;;;;;9.40;1.80;;;;;;;24.18;42.84;98103.03;105760;1287;22488;-82
2022/07/13 10:48:22;;;;;;;3.10;1.50;;;;;;;24.14;42.64;98097.27;106111;1287;22575;-83
2022/07/13 10:50:52;;;;;;;2.50;1.50;;;;;;;24.18;42.67;98102.24;106154;1287;22803;-83
2022/07/13 10:53:42;;;;;;;2.80;1.60;;;;;;;24.36;42.63;98105.03;106211;1287;23157;-83
2022/07/13 10:56:20;;;;;;;1.50;1.40;;;;;;;24.46;42.52;98113.77;105254;1287;22576;-81
2022/07/13 10:58:50;;;;;;;5.80;1.60;;;;;;;24.43;41.83;98115.30;105446;1287;22723;-82
2022/07/13 11:01:38;;;;;;;2.10;1.50;;;;;;;24.38;41.81;98101.02;105412;1287;26539;-82
2022/07/13 11:04:08;;;;;;;3.10;1.80;;;;;;;24.64;42.27;98102.91;105733;1287;22703;-81
2022/07/13 11:06:38;;;;;;;5.50;1.60;;;;;;;24.57;41.91;98110.83;105483;1287;24112;-84
2022/07/13 11:09:15;;;;;;;2.60;1.60;;;;;;;24.42;42.14;98117.82;105458;1287;26627;-83
2022/07/13 11:11:46;;;;;;;3.60;1.50;;;;;;;24.46;42.19;98118.56;105408;1287;22702;-85
2022/07/13 11:14:35;;;;;;;1.90;1.50;;;;;;;24.65;42.26;98108.81;105234;1287;25415;-83
2022/07/13 11:17:17;;;;;;;2.20;1.40;;;;;;;24.94;42.02;98100.49;105351;1287;24316;-83
2022/07/13 11:20:11;;;;;;;2.70;1.60;;;;;;;25.01;40.77;98103.91;105452;1288;23549;-83
2022/07/13 11:25:55;;;;;;;3.40;1.50;;;;;;;25.18;41.35;98096.48;105216;1287;23028;-87
2022/07/13 11:28:55;;;;;;;3.00;1.50;;;;;;;25.38;40.83;98106.77;105390;1287;22546;-85
2022/07/13 11:31:24;;;;;;;4.20;1.20;;;;;;;25.53;40.36;98102.60;105594;1288;22553;-85
2022/07/13 11:33:52;;;;;;;1.30;1.10;;;;;;;25.51;38.92;98100.48;105331;1288;24345;-86
2022/07/13 11:36:23;;;;;;;3.40;1.30;;;;;;;25.37;38.69;98089.35;105308;1287;25259;-85
2022/07/13 11:39:00;;;;;;;1.30;1.20;;;;;;;25.39;38.75;98092.04;105273;1287;25530;-86
2022/07/13 11:41:28;;;;;;;1.60;1.20;;;;;;;25.36;38.68;98085.80;105298;1288;22541;-88
2022/07/13 11:43:56;;;;;;;1.70;1.20;;;;;;;25.42;38.25;98084.93;105139;1288;22554;-85
2022/07/13 11:46:28;;;;;;;1.60;1.20;;;;;;;25.41;37.40;98091.95;105326;1287;22705;-84
2022/07/13 11:49:05;;;;;;;2.30;1.20;;;;;;;25.42;37.82;98082.66;105286;1287;24549;-84
2022/07/13 11:51:33;;;;;;;1.90;1.40;;;;;;;25.55;37.13;98085.33;105322;1287;23825;-87